East Texas Regional Airport


Codes: KGGG/GGG
Name: East Texas Regional Airport
City: Longview
Country: United States
Elevation: 365 ft.
Wikipedia:

Photos at East Texas Regional Airport


   Photos courtesy of SpottingLog. You can add your own sightings and photos by signing up for a free trial today.



No photos found.

Weather at East Texas Regional Airport


Time (UTC)DescriptionTempratureWindCloud coverageVisibilityPressureHumidity
23-May-2024 21:00Heavy Intensity Rain28°C9 mph, N75%10000m1011hPa78%
24-May-2024 00:00Light Rain26°C4 mph, E83%10000m1010hPa83%
24-May-2024 03:00Light Rain23°C9 mph, E92%10000m1009hPa89%
24-May-2024 06:00Light Rain20°C4 mph, NE100%10000m1011hPa98%
24-May-2024 09:00Broken Clouds21°C11 mph, S56%10000m1007hPa98%
24-May-2024 12:00Scattered Clouds22°C9 mph, S44%10000m1008hPa97%
24-May-2024 15:00Broken Clouds25°C13 mph, S59%10000m1009hPa86%
24-May-2024 18:00Broken Clouds30°C13 mph, SW73%10000m1008hPa70%
24-May-2024 21:00Broken Clouds32°C9 mph, SW53%10000m1007hPa66%
25-May-2024 00:00Light Rain29°C4 mph, SW63%10000m1006hPa84%
25-May-2024 03:00Light Rain25°C7 mph, SW92%10000m1008hPa92%
25-May-2024 06:00Light Rain23°C2 mph, W72%10000m1008hPa97%
25-May-2024 09:00Clear Sky20°C4 mph, SW2%10000m1009hPa94%
25-May-2024 12:00Clear Sky20°C2 mph, S2%10000m1010hPa92%
25-May-2024 15:00Clear Sky26°C7 mph, SE0%10000m1011hPa79%
25-May-2024 18:00Clear Sky30°C11 mph, S5%10000m1010hPa68%
25-May-2024 21:00Few Clouds30°C11 mph, SE15%10000m1008hPa71%
26-May-2024 00:00Few Clouds29°C7 mph, SE22%10000m1006hPa77%
26-May-2024 03:00Scattered Clouds27°C11 mph, S29%10000m1007hPa73%
26-May-2024 06:00Light Rain23°C11 mph, S55%10000m1007hPa88%
26-May-2024 09:00Light Rain22°C11 mph, S76%10000m1006hPa97%
26-May-2024 12:00Light Rain23°C7 mph, S82%10000m1008hPa97%
26-May-2024 15:00Broken Clouds25°C13 mph, S70%10000m1007hPa89%
26-May-2024 18:00Scattered Clouds31°C13 mph, SW41%10000m1007hPa68%
26-May-2024 21:00Few Clouds32°C13 mph, SW17%10000m1006hPa68%
27-May-2024 00:00Light Rain30°C9 mph, SW36%10000m1005hPa78%
27-May-2024 03:00Light Rain26°C7 mph, S1%10000m1007hPa90%
27-May-2024 06:00Clear Sky24°C9 mph, S0%10000m1008hPa91%
27-May-2024 09:00Clear Sky23°C9 mph, S1%10000m1008hPa96%
27-May-2024 12:00Light Rain23°C9 mph, S17%10000m1009hPa97%
27-May-2024 15:00Few Clouds28°C13 mph, SW16%10000m1009hPa79%
27-May-2024 18:00Clear Sky32°C9 mph, SW7%10000m1010hPa67%
27-May-2024 21:00Light Rain32°C7 mph, SW92%10000m1009hPa74%
28-May-2024 00:00Light Rain32°C2 mph, W85%10000m1007hPa79%
28-May-2024 03:00Light Rain26°C7 mph, NW0%10000m1010hPa93%
28-May-2024 06:00Light Rain23°C11 mph, N50%10000m1012hPa93%
28-May-2024 09:00Light Rain19°C7 mph, N33%10000m1014hPa92%
28-May-2024 12:00Scattered Clouds18°C9 mph, N43%10000m1015hPa92%
28-May-2024 15:00Clear Sky23°C7 mph, NE9%10000m1016hPa69%
28-May-2024 18:00Clear Sky28°C4 mph, NE5%10000m1016hPa54%